sensor_id;sensor_type;location;lat;lon;timestamp;P1;durP1;ratioP1;P2;durP2;ratioP2
43413;SDS011;29013;49.676;8.606;2022-07-29T00:01:23;3.92;;;1.65;;
43413;SDS011;29013;49.676;8.606;2022-07-29T00:06:51;3.38;;;1.75;;
43413;SDS011;29013;49.676;8.606;2022-07-29T00:12:20;3.79;;;1.53;;
43413;SDS011;29013;49.676;8.606;2022-07-29T00:17:45;2.63;;;1.58;;
43413;SDS011;29013;49.676;8.606;2022-07-29T00:23:12;5.1;;;1.32;;
43413;SDS011;29013;49.676;8.606;2022-07-29T00:28:40;4.88;;;1.81;;
43413;SDS011;29013;49.676;8.606;2022-07-29T00:34:08;2.71;;;1.72;;
43413;SDS011;29013;49.676;8.606;2022-07-29T00:39:33;4.97;;;1.43;;
43413;SDS011;29013;49.676;8.606;2022-07-29T00:45:00;6.53;;;1.61;;
43413;SDS011;29013;49.676;8.606;2022-07-29T00:50:26;5.32;;;1.77;;
43413;SDS011;29013;49.676;8.606;2022-07-29T00:55:49;4.45;;;1.98;;
43413;SDS011;29013;49.676;8.606;2022-07-29T01:01:15;3.75;;;1.7;;
43413;SDS011;29013;49.676;8.606;2022-07-29T01:06:42;9.22;;;2.03;;
43413;SDS011;29013;49.676;8.606;2022-07-29T01:12:10;4.64;;;1.62;;
43413;SDS011;29013;49.676;8.606;2022-07-29T01:17:33;4.09;;;1.52;;
43413;SDS011;29013;49.676;8.606;2022-07-29T01:23:11;5.45;;;1.61;;
43413;SDS011;29013;49.676;8.606;2022-07-29T01:28:49;3.31;;;1.54;;
43413;SDS011;29013;49.676;8.606;2022-07-29T01:34:17;2.31;;;1.51;;
43413;SDS011;29013;49.676;8.606;2022-07-29T01:39:38;1.61;;;1.26;;
43413;SDS011;29013;49.676;8.606;2022-07-29T01:45:02;4.78;;;1.31;;
43413;SDS011;29013;49.676;8.606;2022-07-29T01:50:26;3.21;;;1.67;;
43413;SDS011;29013;49.676;8.606;2022-07-29T01:55:46;4.38;;;1.65;;
43413;SDS011;29013;49.676;8.606;2022-07-29T02:01:09;2.66;;;1.53;;
43413;SDS011;29013;49.676;8.606;2022-07-29T02:06:31;2.78;;;1.66;;
43413;SDS011;29013;49.676;8.606;2022-07-29T02:11:53;2.92;;;1.55;;
43413;SDS011;29013;49.676;8.606;2022-07-29T02:17:15;2.67;;;1.74;;
43413;SDS011;29013;49.676;8.606;2022-07-29T02:22:38;3.24;;;1.46;;
43413;SDS011;29013;49.676;8.606;2022-07-29T02:27:58;2.39;;;1.36;;
43413;SDS011;29013;49.676;8.606;2022-07-29T02:33:19;3.89;;;1.34;;
43413;SDS011;29013;49.676;8.606;2022-07-29T02:38:41;5.68;;;1.4;;
43413;SDS011;29013;49.676;8.606;2022-07-29T02:44:03;3.48;;;1.46;;
43413;SDS011;29013;49.676;8.606;2022-07-29T02:49:28;5.33;;;1.65;;
43413;SDS011;29013;49.676;8.606;2022-07-29T02:54:51;3.53;;;1.35;;
43413;SDS011;29013;49.676;8.606;2022-07-29T03:00:14;3.76;;;1.22;;
43413;SDS011;29013;49.676;8.606;2022-07-29T03:05:36;3.55;;;1.3;;
43413;SDS011;29013;49.676;8.606;2022-07-29T03:10:59;3.73;;;1.35;;
43413;SDS011;29013;49.676;8.606;2022-07-29T03:16:21;2.35;;;1.47;;
43413;SDS011;29013;49.676;8.606;2022-07-29T03:21:46;2.03;;;1.42;;
43413;SDS011;29013;49.676;8.606;2022-07-29T03:27:12;4.27;;;1.63;;
43413;SDS011;29013;49.676;8.606;2022-07-29T03:32:34;4.76;;;1.76;;
43413;SDS011;29013;49.676;8.606;2022-07-29T03:38:02;6.87;;;1.7;;
43413;SDS011;29013;49.676;8.606;2022-07-29T03:43:32;2.78;;;1.53;;
43413;SDS011;29013;49.676;8.606;2022-07-29T03:48:58;3.65;;;1.71;;
43413;SDS011;29013;49.676;8.606;2022-07-29T03:54:22;3.62;;;1.83;;
43413;SDS011;29013;49.676;8.606;2022-07-29T03:59:43;2.34;;;1.67;;
43413;SDS011;29013;49.676;8.606;2022-07-29T04:05:13;2.99;;;1.44;;
43413;SDS011;29013;49.676;8.606;2022-07-29T04:10:39;7.66;;;2.05;;
43413;SDS011;29013;49.676;8.606;2022-07-29T04:16:04;3.39;;;1.81;;
43413;SDS011;29013;49.676;8.606;2022-07-29T04:21:29;2.5;;;1.6;;
43413;SDS011;29013;49.676;8.606;2022-07-29T04:26:50;5.0;;;2.22;;
43413;SDS011;29013;49.676;8.606;2022-07-29T04:32:17;3.41;;;1.66;;
43413;SDS011;29013;49.676;8.606;2022-07-29T04:37:41;4.86;;;1.91;;
43413;SDS011;29013;49.676;8.606;2022-07-29T04:43:09;3.07;;;1.72;;
43413;SDS011;29013;49.676;8.606;2022-07-29T04:48:33;4.38;;;1.49;;
43413;SDS011;29013;49.676;8.606;2022-07-29T04:53:58;6.04;;;2.48;;
43413;SDS011;29013;49.676;8.606;2022-07-29T04:59:26;3.72;;;1.87;;
43413;SDS011;29013;49.676;8.606;2022-07-29T05:04:52;4.18;;;1.88;;
43413;SDS011;29013;49.676;8.606;2022-07-29T05:10:15;6.94;;;1.99;;
43413;SDS011;29013;49.676;8.606;2022-07-29T05:15:45;2.94;;;1.81;;
43413;SDS011;29013;49.676;8.606;2022-07-29T05:21:13;5.39;;;1.68;;
43413;SDS011;29013;49.676;8.606;2022-07-29T05:26:40;5.58;;;1.88;;
43413;SDS011;29013;49.676;8.606;2022-07-29T05:32:08;7.03;;;2.05;;
43413;SDS011;29013;49.676;8.606;2022-07-29T05:37:34;4.73;;;1.9;;
43413;SDS011;29013;49.676;8.606;2022-07-29T05:42:56;5.14;;;1.84;;
43413;SDS011;29013;49.676;8.606;2022-07-29T05:48:21;4.1;;;1.98;;
43413;SDS011;29013;49.676;8.606;2022-07-29T05:53:49;9.27;;;1.95;;
43413;SDS011;29013;49.676;8.606;2022-07-29T05:59:13;3.87;;;1.8;;
43413;SDS011;29013;49.676;8.606;2022-07-29T06:04:41;3.74;;;2.02;;
43413;SDS011;29013;49.676;8.606;2022-07-29T06:10:10;7.24;;;2.07;;
43413;SDS011;29013;49.676;8.606;2022-07-29T06:15:35;3.39;;;2.24;;
43413;SDS011;29013;49.676;8.606;2022-07-29T06:21:06;3.3;;;1.76;;
43413;SDS011;29013;49.676;8.606;2022-07-29T06:26:31;4.83;;;1.98;;
43413;SDS011;29013;49.676;8.606;2022-07-29T06:32:00;3.29;;;1.81;;
43413;SDS011;29013;49.676;8.606;2022-07-29T06:37:28;4.42;;;1.98;;
43413;SDS011;29013;49.676;8.606;2022-07-29T06:42:54;3.09;;;1.73;;
43413;SDS011;29013;49.676;8.606;2022-07-29T06:48:22;2.86;;;1.88;;
43413;SDS011;29013;49.676;8.606;2022-07-29T06:53:50;5.87;;;1.72;;
43413;SDS011;29013;49.676;8.606;2022-07-29T06:59:15;2.77;;;1.94;;
43413;SDS011;29013;49.676;8.606;2022-07-29T07:04:45;4.27;;;2.12;;
43413;SDS011;29013;49.676;8.606;2022-07-29T07:10:13;4.96;;;1.73;;
43413;SDS011;29013;49.676;8.606;2022-07-29T07:15:41;5.63;;;2.15;;
43413;SDS011;29013;49.676;8.606;2022-07-29T07:21:03;3.13;;;1.86;;
43413;SDS011;29013;49.676;8.606;2022-07-29T07:26:29;3.48;;;2.18;;
43413;SDS011;29013;49.676;8.606;2022-07-29T07:31:51;3.55;;;1.97;;
43413;SDS011;29013;49.676;8.606;2022-07-29T07:37:12;3.7;;;2.36;;
43413;SDS011;29013;49.676;8.606;2022-07-29T07:42:41;2.0;;;1.86;;
43413;SDS011;29013;49.676;8.606;2022-07-29T07:48:08;5.13;;;2.19;;
43413;SDS011;29013;49.676;8.606;2022-07-29T07:53:37;3.27;;;1.88;;
43413;SDS011;29013;49.676;8.606;2022-07-29T07:59:05;2.96;;;2.08;;
43413;SDS011;29013;49.676;8.606;2022-07-29T08:04:29;3.01;;;2.11;;
43413;SDS011;29013;49.676;8.606;2022-07-29T08:09:53;3.85;;;2.42;;
43413;SDS011;29013;49.676;8.606;2022-07-29T08:15:18;6.68;;;2.49;;
43413;SDS011;29013;49.676;8.606;2022-07-29T08:20:44;4.98;;;2.17;;
43413;SDS011;29013;49.676;8.606;2022-07-29T08:26:13;6.34;;;2.55;;
43413;SDS011;29013;49.676;8.606;2022-07-29T08:31:39;3.49;;;2.31;;
43413;SDS011;29013;49.676;8.606;2022-07-29T08:37:00;3.48;;;2.38;;
43413;SDS011;29013;49.676;8.606;2022-07-29T08:42:23;3.49;;;2.22;;
43413;SDS011;29013;49.676;8.606;2022-07-29T08:47:45;4.88;;;2.3;;
43413;SDS011;29013;49.676;8.606;2022-07-29T08:53:11;3.31;;;2.12;;
43413;SDS011;29013;49.676;8.606;2022-07-29T08:58:33;8.88;;;2.52;;
43413;SDS011;29013;49.676;8.606;2022-07-29T09:04:03;4.34;;;2.27;;
43413;SDS011;29013;49.676;8.606;2022-07-29T09:09:30;4.17;;;2.05;;
43413;SDS011;29013;49.676;8.606;2022-07-29T09:14:59;3.81;;;2.62;;
43413;SDS011;29013;49.676;8.606;2022-07-29T09:20:26;6.18;;;2.26;;
43413;SDS011;29013;49.676;8.606;2022-07-29T09:25:54;3.8;;;2.41;;
43413;SDS011;29013;49.676;8.606;2022-07-29T09:31:25;5.98;;;2.52;;
43413;SDS011;29013;49.676;8.606;2022-07-29T09:36:53;6.56;;;2.67;;
43413;SDS011;29013;49.676;8.606;2022-07-29T09:42:28;5.02;;;2.68;;
43413;SDS011;29013;49.676;8.606;2022-07-29T09:47:53;3.99;;;2.67;;
43413;SDS011;29013;49.676;8.606;2022-07-29T09:53:31;4.54;;;2.61;;
43413;SDS011;29013;49.676;8.606;2022-07-29T09:59:06;4.51;;;2.6;;
43413;SDS011;29013;49.676;8.606;2022-07-29T10:04:40;5.37;;;2.66;;
43413;SDS011;29013;49.676;8.606;2022-07-29T10:10:04;4.41;;;2.65;;
43413;SDS011;29013;49.676;8.606;2022-07-29T10:15:34;4.93;;;2.44;;
43413;SDS011;29013;49.676;8.606;2022-07-29T10:20:56;5.17;;;2.94;;
43413;SDS011;29013;49.676;8.606;2022-07-29T10:26:23;5.18;;;2.56;;
43413;SDS011;29013;49.676;8.606;2022-07-29T10:31:47;5.16;;;2.49;;
43413;SDS011;29013;49.676;8.606;2022-07-29T10:37:12;8.09;;;3.02;;
43413;SDS011;29013;49.676;8.606;2022-07-29T10:42:39;5.65;;;2.64;;
43413;SDS011;29013;49.676;8.606;2022-07-29T10:48:06;4.36;;;2.64;;
43413;SDS011;29013;49.676;8.606;2022-07-29T10:53:48;4.78;;;2.61;;
43413;SDS011;29013;49.676;8.606;2022-07-29T10:59:25;6.62;;;2.9;;
43413;SDS011;29013;49.676;8.606;2022-07-29T11:05:02;5.71;;;2.59;;
43413;SDS011;29013;49.676;8.606;2022-07-29T11:10:34;6.2;;;2.99;;
43413;SDS011;29013;49.676;8.606;2022-07-29T11:15:59;6.83;;;2.83;;
43413;SDS011;29013;49.676;8.606;2022-07-29T11:27:13;4.92;;;2.93;;
43413;SDS011;29013;49.676;8.606;2022-07-29T11:32:41;5.48;;;3.21;;
43413;SDS011;29013;49.676;8.606;2022-07-29T11:38:24;5.16;;;3.02;;
43413;SDS011;29013;49.676;8.606;2022-07-29T11:43:50;5.32;;;3.47;;
43413;SDS011;29013;49.676;8.606;2022-07-29T11:49:20;6.07;;;2.93;;
43413;SDS011;29013;49.676;8.606;2022-07-29T11:54:42;5.27;;;3.06;;
43413;SDS011;29013;49.676;8.606;2022-07-29T12:00:10;6.86;;;3.34;;
43413;SDS011;29013;49.676;8.606;2022-07-29T12:05:38;6.95;;;3.88;;
43413;SDS011;29013;49.676;8.606;2022-07-29T12:11:04;4.98;;;3.38;;
43413;SDS011;29013;49.676;8.606;2022-07-29T12:16:33;5.3;;;3.31;;
43413;SDS011;29013;49.676;8.606;2022-07-29T12:21:59;4.7;;;3.08;;
43413;SDS011;29013;49.676;8.606;2022-07-29T12:27:26;4.41;;;2.8;;
43413;SDS011;29013;49.676;8.606;2022-07-29T12:32:54;4.88;;;2.5;;
43413;SDS011;29013;49.676;8.606;2022-07-29T12:38:22;4.38;;;2.67;;
43413;SDS011;29013;49.676;8.606;2022-07-29T12:43:52;6.76;;;2.59;;
43413;SDS011;29013;49.676;8.606;2022-07-29T12:49:22;3.87;;;2.5;;
43413;SDS011;29013;49.676;8.606;2022-07-29T12:54:47;3.55;;;2.53;;
43413;SDS011;29013;49.676;8.606;2022-07-29T13:00:21;6.59;;;2.28;;
43413;SDS011;29013;49.676;8.606;2022-07-29T13:05:44;4.46;;;2.63;;
43413;SDS011;29013;49.676;8.606;2022-07-29T13:11:08;4.94;;;2.33;;
43413;SDS011;29013;49.676;8.606;2022-07-29T13:16:31;4.33;;;2.3;;
43413;SDS011;29013;49.676;8.606;2022-07-29T13:21:56;2.28;;;1.84;;
43413;SDS011;29013;49.676;8.606;2022-07-29T13:27:24;4.4;;;1.93;;
43413;SDS011;29013;49.676;8.606;2022-07-29T13:32:49;3.07;;;2.37;;
43413;SDS011;29013;49.676;8.606;2022-07-29T13:38:14;10.47;;;2.3;;
43413;SDS011;29013;49.676;8.606;2022-07-29T13:43:37;3.32;;;2.1;;
43413;SDS011;29013;49.676;8.606;2022-07-29T13:48:59;2.82;;;2.18;;
43413;SDS011;29013;49.676;8.606;2022-07-29T13:54:23;3.33;;;1.84;;
43413;SDS011;29013;49.676;8.606;2022-07-29T13:59:44;4.74;;;2.11;;
43413;SDS011;29013;49.676;8.606;2022-07-29T14:05:12;6.1;;;2.2;;
43413;SDS011;29013;49.676;8.606;2022-07-29T14:10:40;4.05;;;2.19;;
43413;SDS011;29013;49.676;8.606;2022-07-29T14:16:07;3.6;;;2.19;;
43413;SDS011;29013;49.676;8.606;2022-07-29T14:21:34;4.79;;;2.21;;
43413;SDS011;29013;49.676;8.606;2022-07-29T14:27:02;5.1;;;2.35;;
43413;SDS011;29013;49.676;8.606;2022-07-29T14:32:28;3.8;;;2.08;;
43413;SDS011;29013;49.676;8.606;2022-07-29T14:37:56;3.72;;;1.96;;
43413;SDS011;29013;49.676;8.606;2022-07-29T14:43:22;3.28;;;2.05;;
43413;SDS011;29013;49.676;8.606;2022-07-29T14:48:47;5.04;;;2.45;;
43413;SDS011;29013;49.676;8.606;2022-07-29T14:54:14;4.93;;;2.22;;
43413;SDS011;29013;49.676;8.606;2022-07-29T14:59:42;4.29;;;2.51;;
43413;SDS011;29013;49.676;8.606;2022-07-29T15:05:05;3.11;;;1.87;;
43413;SDS011;29013;49.676;8.606;2022-07-29T15:10:27;3.88;;;1.91;;
43413;SDS011;29013;49.676;8.606;2022-07-29T15:15:54;5.4;;;1.95;;
43413;SDS011;29013;49.676;8.606;2022-07-29T15:21:16;3.37;;;2.08;;
43413;SDS011;29013;49.676;8.606;2022-07-29T15:26:44;8.55;;;2.18;;
43413;SDS011;29013;49.676;8.606;2022-07-29T15:32:12;6.45;;;2.28;;
43413;SDS011;29013;49.676;8.606;2022-07-29T15:37:40;4.23;;;2.08;;
43413;SDS011;29013;49.676;8.606;2022-07-29T15:43:07;4.15;;;2.06;;
43413;SDS011;29013;49.676;8.606;2022-07-29T15:48:36;5.11;;;2.03;;
43413;SDS011;29013;49.676;8.606;2022-07-29T15:54:04;4.85;;;1.95;;
43413;SDS011;29013;49.676;8.606;2022-07-29T15:59:25;6.81;;;1.92;;
43413;SDS011;29013;49.676;8.606;2022-07-29T16:04:53;3.46;;;1.89;;
43413;SDS011;29013;49.676;8.606;2022-07-29T16:10:20;4.32;;;1.61;;
43413;SDS011;29013;49.676;8.606;2022-07-29T16:15:47;5.05;;;2.33;;
43413;SDS011;29013;49.676;8.606;2022-07-29T16:21:15;2.52;;;1.67;;
43413;SDS011;29013;49.676;8.606;2022-07-29T16:26:42;2.88;;;1.84;;
43413;SDS011;29013;49.676;8.606;2022-07-29T16:32:09;5.1;;;2.4;;
43413;SDS011;29013;49.676;8.606;2022-07-29T16:37:37;3.97;;;2.25;;
43413;SDS011;29013;49.676;8.606;2022-07-29T16:43:02;4.86;;;2.3;;
43413;SDS011;29013;49.676;8.606;2022-07-29T16:48:28;3.74;;;1.95;;
43413;SDS011;29013;49.676;8.606;2022-07-29T16:53:55;2.58;;;1.95;;
43413;SDS011;29013;49.676;8.606;2022-07-29T16:59:22;2.72;;;2.07;;
43413;SDS011;29013;49.676;8.606;2022-07-29T17:04:45;5.56;;;2.14;;
43413;SDS011;29013;49.676;8.606;2022-07-29T17:10:10;4.32;;;2.71;;
43413;SDS011;29013;49.676;8.606;2022-07-29T17:15:33;2.67;;;1.96;;
43413;SDS011;29013;49.676;8.606;2022-07-29T17:21:01;3.37;;;2.06;;
43413;SDS011;29013;49.676;8.606;2022-07-29T17:26:29;2.45;;;1.74;;
43413;SDS011;29013;49.676;8.606;2022-07-29T17:32:01;3.46;;;1.96;;
43413;SDS011;29013;49.676;8.606;2022-07-29T17:37:29;3.21;;;2.12;;
43413;SDS011;29013;49.676;8.606;2022-07-29T17:43:01;4.59;;;2.48;;
43413;SDS011;29013;49.676;8.606;2022-07-29T17:48:27;4.05;;;2.39;;
43413;SDS011;29013;49.676;8.606;2022-07-29T17:53:51;3.04;;;2.38;;
43413;SDS011;29013;49.676;8.606;2022-07-29T17:59:34;3.32;;;2.2;;
43413;SDS011;29013;49.676;8.606;2022-07-29T18:04:59;4.75;;;2.22;;
43413;SDS011;29013;49.676;8.606;2022-07-29T18:10:27;3.22;;;2.52;;
43413;SDS011;29013;49.676;8.606;2022-07-29T18:15:53;2.71;;;2.25;;
43413;SDS011;29013;49.676;8.606;2022-07-29T18:21:21;4.37;;;2.07;;
43413;SDS011;29013;49.676;8.606;2022-07-29T18:26:47;4.57;;;2.39;;
43413;SDS011;29013;49.676;8.606;2022-07-29T18:32:15;3.95;;;2.36;;
43413;SDS011;29013;49.676;8.606;2022-07-29T18:37:43;3.34;;;2.19;;
43413;SDS011;29013;49.676;8.606;2022-07-29T18:43:05;2.42;;;2.17;;
43413;SDS011;29013;49.676;8.606;2022-07-29T18:48:29;3.26;;;2.43;;
43413;SDS011;29013;49.676;8.606;2022-07-29T18:53:54;2.88;;;2.34;;
43413;SDS011;29013;49.676;8.606;2022-07-29T18:59:18;2.48;;;2.35;;
43413;SDS011;29013;49.676;8.606;2022-07-29T19:04:40;2.64;;;2.32;;
43413;SDS011;29013;49.676;8.606;2022-07-29T19:10:09;3.61;;;2.57;;
43413;SDS011;29013;49.676;8.606;2022-07-29T19:15:37;3.83;;;2.3;;
43413;SDS011;29013;49.676;8.606;2022-07-29T19:21:02;6.51;;;2.52;;
43413;SDS011;29013;49.676;8.606;2022-07-29T19:26:29;2.92;;;2.35;;
43413;SDS011;29013;49.676;8.606;2022-07-29T19:31:56;4.42;;;2.48;;
43413;SDS011;29013;49.676;8.606;2022-07-29T19:37:20;3.65;;;2.62;;
43413;SDS011;29013;49.676;8.606;2022-07-29T19:42:47;2.96;;;2.54;;
43413;SDS011;29013;49.676;8.606;2022-07-29T19:48:14;2.8;;;2.32;;
43413;SDS011;29013;49.676;8.606;2022-07-29T19:53:42;4.09;;;2.4;;
43413;SDS011;29013;49.676;8.606;2022-07-29T19:59:09;3.26;;;2.5;;
43413;SDS011;29013;49.676;8.606;2022-07-29T20:04:34;4.12;;;2.49;;
43413;SDS011;29013;49.676;8.606;2022-07-29T20:10:01;2.64;;;2.5;;
43413;SDS011;29013;49.676;8.606;2022-07-29T20:15:24;4.67;;;2.54;;
43413;SDS011;29013;49.676;8.606;2022-07-29T20:20:53;5.47;;;2.53;;
43413;SDS011;29013;49.676;8.606;2022-07-29T20:26:15;4.29;;;2.65;;
43413;SDS011;29013;49.676;8.606;2022-07-29T20:31:40;4.41;;;3.06;;
43413;SDS011;29013;49.676;8.606;2022-07-29T20:37:02;3.66;;;2.56;;
43413;SDS011;29013;49.676;8.606;2022-07-29T20:42:29;4.9;;;2.96;;
43413;SDS011;29013;49.676;8.606;2022-07-29T20:47:56;5.57;;;3.18;;
43413;SDS011;29013;49.676;8.606;2022-07-29T20:53:23;6.69;;;3.36;;
43413;SDS011;29013;49.676;8.606;2022-07-29T20:58:50;4.83;;;2.83;;
43413;SDS011;29013;49.676;8.606;2022-07-29T21:04:16;3.75;;;3.06;;
43413;SDS011;29013;49.676;8.606;2022-07-29T21:09:46;5.34;;;3.17;;
43413;SDS011;29013;49.676;8.606;2022-07-29T21:15:13;6.35;;;3.41;;
43413;SDS011;29013;49.676;8.606;2022-07-29T21:20:35;2.91;;;2.92;;
43413;SDS011;29013;49.676;8.606;2022-07-29T21:26:03;4.48;;;2.99;;
43413;SDS011;29013;49.676;8.606;2022-07-29T21:31:25;3.31;;;2.78;;
43413;SDS011;29013;49.676;8.606;2022-07-29T21:36:52;3.31;;;2.81;;
43413;SDS011;29013;49.676;8.606;2022-07-29T21:42:15;3.03;;;2.76;;
43413;SDS011;29013;49.676;8.606;2022-07-29T21:47:42;4.09;;;3.12;;
43413;SDS011;29013;49.676;8.606;2022-07-29T21:53:05;4.18;;;3.17;;
43413;SDS011;29013;49.676;8.606;2022-07-29T21:58:33;3.18;;;3.12;;
43413;SDS011;29013;49.676;8.606;2022-07-29T22:03:57;3.4;;;2.84;;
43413;SDS011;29013;49.676;8.606;2022-07-29T22:09:23;3.62;;;2.93;;
43413;SDS011;29013;49.676;8.606;2022-07-29T22:14:49;4.65;;;3.24;;
43413;SDS011;29013;49.676;8.606;2022-07-29T22:20:16;3.79;;;2.95;;
43413;SDS011;29013;49.676;8.606;2022-07-29T22:25:43;3.51;;;3.27;;
43413;SDS011;29013;49.676;8.606;2022-07-29T22:31:12;3.07;;;2.66;;
43413;SDS011;29013;49.676;8.606;2022-07-29T22:36:36;4.48;;;2.87;;
43413;SDS011;29013;49.676;8.606;2022-07-29T22:42:05;6.4;;;2.69;;
43413;SDS011;29013;49.676;8.606;2022-07-29T22:47:31;4.8;;;3.25;;
43413;SDS011;29013;49.676;8.606;2022-07-29T22:53:01;2.64;;;2.63;;
43413;SDS011;29013;49.676;8.606;2022-07-29T22:58:28;2.85;;;2.49;;
43413;SDS011;29013;49.676;8.606;2022-07-29T23:04:07;3.06;;;2.32;;
43413;SDS011;29013;49.676;8.606;2022-07-29T23:09:35;4.72;;;3.15;;
43413;SDS011;29013;49.676;8.606;2022-07-29T23:15:03;3.89;;;2.82;;
43413;SDS011;29013;49.676;8.606;2022-07-29T23:20:32;3.77;;;3.33;;
43413;SDS011;29013;49.676;8.606;2022-07-29T23:25:58;3.65;;;3.03;;
43413;SDS011;29013;49.676;8.606;2022-07-29T23:31:21;3.06;;;3.17;;
43413;SDS011;29013;49.676;8.606;2022-07-29T23:36:47;2.74;;;2.96;;
43413;SDS011;29013;49.676;8.606;2022-07-29T23:42:16;3.4;;;3.03;;
43413;SDS011;29013;49.676;8.606;2022-07-29T23:47:44;5.31;;;3.18;;
43413;SDS011;29013;49.676;8.606;2022-07-29T23:53:11;3.73;;;3.37;;
43413;SDS011;29013;49.676;8.606;2022-07-29T23:58:33;4.04;;;3.36;;
